createdAt,value
2022-12-14T00:02:40.990Z,16.08
2022-12-14T00:07:42.407Z,16.20
2022-12-14T00:12:43.775Z,16.40
2022-12-14T00:17:45.690Z,16.08
2022-12-14T00:22:47.082Z,15.98
2022-12-14T00:27:48.918Z,15.27
2022-12-14T00:32:50.328Z,14.73
2022-12-14T00:37:51.735Z,14.85
2022-12-14T00:42:53.166Z,15.07
2022-12-14T00:47:54.938Z,15.30
2022-12-14T00:52:56.319Z,16.85
2022-12-14T00:57:57.675Z,17.63
2022-12-14T01:02:59.365Z,17.20
2022-12-14T01:08:00.904Z,17.05
2022-12-14T01:13:03.323Z,17.63
2022-12-14T01:18:04.853Z,17.23
2022-12-14T01:23:06.311Z,16.60
2022-12-14T01:28:07.835Z,16.95
2022-12-14T01:33:09.244Z,17.55
2022-12-14T01:38:10.616Z,17.42
2022-12-14T01:43:15.081Z,16.02
2022-12-14T01:48:18.152Z,16.63
2022-12-14T01:53:21.870Z,16.30
2022-12-14T01:58:24.573Z,15.70
2022-12-14T02:03:37.016Z,16.35
2022-12-14T02:08:39.269Z,16.95
2022-12-14T02:13:41.451Z,16.73
2022-12-14T02:18:42.878Z,15.90
2022-12-14T02:24:03.022Z,15.43
2022-12-14T02:34:06.558Z,12.93
2022-12-14T02:39:18.477Z,12.88
2022-12-14T02:44:22.645Z,13.20
2022-12-14T02:49:26.857Z,12.88
2022-12-14T02:54:28.260Z,11.68
2022-12-14T02:59:30.087Z,11.20
2022-12-14T03:04:31.494Z,11.57
2022-12-14T03:09:32.948Z,11.30
2022-12-14T03:14:36.666Z,11.05
2022-12-14T03:19:40.921Z,10.88
2022-12-14T03:24:43.665Z,10.93
2022-12-14T03:29:57.400Z,11.88
2022-12-14T03:35:01.933Z,9.77
2022-12-14T03:40:06.627Z,10.77
2022-12-14T03:45:20.023Z,10.70
2022-12-14T03:50:21.396Z,9.93
2022-12-14T03:55:25.553Z,10.77
2022-12-14T04:00:29.633Z,9.50
2022-12-14T04:05:45.482Z,9.90
2022-12-14T04:11:10.230Z,9.50
2022-12-14T04:16:32.180Z,9.15
2022-12-14T04:21:36.695Z,9.68
2022-12-14T04:26:42.580Z,10.52
2022-12-14T04:31:49.128Z,9.50
2022-12-14T04:36:56.070Z,9.93
2022-12-14T04:41:59.185Z,10.27
2022-12-14T04:47:01.857Z,10.35
2022-12-14T04:52:06.588Z,10.40
2022-12-14T04:57:19.425Z,11.35
2022-12-14T05:02:24.645Z,12.38
2022-12-14T05:07:48.826Z,12.55
2022-12-14T05:12:57.745Z,12.10
2022-12-14T05:18:02.422Z,13.52
2022-12-14T05:23:04.194Z,16.52
2022-12-14T05:28:05.804Z,14.25
2022-12-14T05:33:07.225Z,14.45
2022-12-14T05:38:10.134Z,15.43
2022-12-14T05:43:12.260Z,13.48
2022-12-14T05:48:13.680Z,14.10
2022-12-14T05:53:15.059Z,13.32
2022-12-14T05:58:16.747Z,12.50
2022-12-14T06:03:18.177Z,13.00
2022-12-14T06:08:19.982Z,12.70
2022-12-14T06:13:21.391Z,11.93
2022-12-14T06:18:24.249Z,12.52
2022-12-14T06:23:25.987Z,13.02
2022-12-14T06:28:27.898Z,11.90
2022-12-14T06:33:30.091Z,12.82
2022-12-14T06:38:31.792Z,12.65
2022-12-14T06:43:33.182Z,12.35
2022-12-14T06:48:34.600Z,13.05
2022-12-14T06:53:36.256Z,13.02
2022-12-14T06:58:37.999Z,13.68
2022-12-14T07:03:40.235Z,13.68
2022-12-14T07:08:41.771Z,14.40
2022-12-14T07:13:44.534Z,14.07
2022-12-14T07:18:46.001Z,14.00
2022-12-14T07:23:48.090Z,15.80
2022-12-14T07:28:50.052Z,15.02
2022-12-14T07:33:55.184Z,15.73
2022-12-14T07:38:56.757Z,17.52
2022-12-14T07:43:59.345Z,17.50
2022-12-14T07:49:01.558Z,16.48
2022-12-14T07:54:03.719Z,17.50
2022-12-14T07:59:06.707Z,17.35
2022-12-14T08:04:12.355Z,17.83
2022-12-14T08:09:15.610Z,17.23
2022-12-14T08:14:17.826Z,17.40
2022-12-14T08:19:19.840Z,16.52
2022-12-14T08:24:21.277Z,17.90
2022-12-14T08:29:22.631Z,16.98
2022-12-14T08:34:24.118Z,19.90
2022-12-14T08:39:25.511Z,19.63
2022-12-14T08:44:26.974Z,17.48
2022-12-14T08:49:32.219Z,17.45
2022-12-14T08:54:34.120Z,17.23
2022-12-14T09:00:00.093Z,16.38
2022-12-14T09:04:56.913Z,16.17
2022-12-14T09:09:58.500Z,17.10
2022-12-14T09:14:59.907Z,16.40
2022-12-14T09:20:01.378Z,15.07
2022-12-14T09:25:02.874Z,16.00
2022-12-14T09:30:04.539Z,16.70
2022-12-14T09:35:06.321Z,18.15
2022-12-14T09:40:07.964Z,15.90
2022-12-14T09:45:18.895Z,16.58
2022-12-14T09:50:21.298Z,15.80
2022-12-14T09:55:28.744Z,17.30
2022-12-14T10:00:32.990Z,16.05
2022-12-14T10:05:37.865Z,14.90
2022-12-14T10:10:39.261Z,14.98
2022-12-14T10:15:46.327Z,15.50
2022-12-14T10:20:54.771Z,15.68
2022-12-14T10:25:59.191Z,15.25
2022-12-14T10:31:01.266Z,14.07
2022-12-14T10:36:21.180Z,14.63
2022-12-14T10:41:22.720Z,13.23
2022-12-14T10:46:39.797Z,14.05
2022-12-14T10:51:43.544Z,13.13
2022-12-14T10:56:49.872Z,13.70
2022-12-14T11:01:58.678Z,12.43
2022-12-14T11:07:05.391Z,11.45
2022-12-14T11:12:08.764Z,11.75
2022-12-14T11:17:29.857Z,12.45
2022-12-14T11:22:42.832Z,11.40
2022-12-14T11:27:44.279Z,10.80
2022-12-14T11:32:51.978Z,11.48
2022-12-14T11:37:58.136Z,12.85
2022-12-14T11:43:04.558Z,12.45
2022-12-14T11:48:15.129Z,12.30
2022-12-14T11:53:18.248Z,12.63
2022-12-14T11:58:27.915Z,13.88
2022-12-14T12:03:32.619Z,12.15
2022-12-14T12:08:35.783Z,11.75
2022-12-14T12:13:38.791Z,11.88
2022-12-14T12:18:58.825Z,12.20
2022-12-14T12:24:15.480Z,12.50
2022-12-14T12:29:26.594Z,11.25
2022-12-14T12:34:48.294Z,9.57
2022-12-14T12:39:52.316Z,10.00
2022-12-14T12:45:16.864Z,9.52
2022-12-14T12:50:29.958Z,9.18
2022-12-14T12:55:57.569Z,9.70
2022-12-14T13:01:04.701Z,10.68
2022-12-14T13:06:10.435Z,12.50
2022-12-14T13:11:26.257Z,13.95
2022-12-14T13:16:32.186Z,13.35
2022-12-14T13:21:34.722Z,11.20
2022-12-14T13:27:02.973Z,11.32
2022-12-14T13:32:13.410Z,9.60
2022-12-14T13:37:20.808Z,9.75
2022-12-14T13:42:37.552Z,9.65
2022-12-14T13:47:41.070Z,9.40
2022-12-14T13:52:44.082Z,8.80
2022-12-14T13:57:45.711Z,8.15
2022-12-14T14:02:53.464Z,9.80
2022-12-14T14:08:02.151Z,8.70
2022-12-14T14:13:26.540Z,9.20
2022-12-14T14:18:29.641Z,10.70
2022-12-14T14:23:32.789Z,9.38
2022-12-14T14:28:36.331Z,9.63
2022-12-14T14:33:48.384Z,8.48
2022-12-14T14:38:51.019Z,9.80
2022-12-14T14:44:03.330Z,9.50
2022-12-14T14:49:05.773Z,11.23
2022-12-14T14:54:37.685Z,11.88
2022-12-14T14:59:40.462Z,12.38
2022-12-14T15:04:47.215Z,11.23
2022-12-14T15:09:51.264Z,11.82
2022-12-14T15:14:58.693Z,14.00
2022-12-14T15:20:01.362Z,14.02
2022-12-14T15:25:02.979Z,12.38
2022-12-14T15:30:06.447Z,12.60
2022-12-14T15:35:09.418Z,11.20
2022-12-14T15:40:13.211Z,11.13
2022-12-14T15:45:16.294Z,11.00
2022-12-14T15:50:17.770Z,12.25
2022-12-14T15:55:28.284Z,13.10
2022-12-14T16:00:29.719Z,16.05
2022-12-14T16:05:32.684Z,13.80
2022-12-14T16:10:34.262Z,13.18
2022-12-14T16:15:35.908Z,12.40
2022-12-14T16:20:37.868Z,10.57
2022-12-14T16:25:50.223Z,10.00
2022-12-14T16:30:52.727Z,11.15
2022-12-14T16:36:02.400Z,10.77
2022-12-14T16:41:06.086Z,10.52
2022-12-14T16:46:11.819Z,10.52
2022-12-14T16:51:33.102Z,10.63
2022-12-14T16:56:45.548Z,10.70
2022-12-14T17:01:48.385Z,10.52
2022-12-14T17:06:52.851Z,10.88
2022-12-14T17:11:58.931Z,9.75
2022-12-14T17:17:03.926Z,11.38
2022-12-14T17:22:08.599Z,13.50
2022-12-14T17:27:14.539Z,13.55
2022-12-14T17:32:16.674Z,14.60
2022-12-14T17:37:19.708Z,16.88
2022-12-14T17:42:21.759Z,20.55
2022-12-14T17:47:23.664Z,17.17
2022-12-14T17:52:28.446Z,14.07
2022-12-14T17:57:29.883Z,14.45
2022-12-14T18:02:35.709Z,14.63
2022-12-14T18:07:37.373Z,13.82
2022-12-14T18:12:39.092Z,16.33
2022-12-14T18:17:40.736Z,14.63
2022-12-14T18:22:42.237Z,14.27
2022-12-14T18:27:43.661Z,14.15
2022-12-14T18:32:45.061Z,13.10
2022-12-14T18:37:49.335Z,13.88
2022-12-14T18:42:51.282Z,14.85
2022-12-14T18:47:54.229Z,15.57
2022-12-14T18:52:55.809Z,13.95
2022-12-14T18:57:58.095Z,13.35
2022-12-14T19:03:00.976Z,17.02
2022-12-14T19:08:02.702Z,16.30
2022-12-14T19:13:04.359Z,15.05
2022-12-14T19:18:06.060Z,14.00
2022-12-14T19:23:07.518Z,15.82
2022-12-14T19:33:33.859Z,17.73
2022-12-14T19:38:35.929Z,15.52
2022-12-14T19:43:37.728Z,16.48
2022-12-14T19:48:39.479Z,15.40
2022-12-14T19:53:42.834Z,14.18
2022-12-14T19:58:44.363Z,14.23
2022-12-14T20:03:46.070Z,12.07
2022-12-14T20:08:49.457Z,14.07
2022-12-14T20:13:56.737Z,13.95
2022-12-14T20:19:00.335Z,11.93
2022-12-14T20:24:01.863Z,11.73
2022-12-14T20:29:06.179Z,13.02
2022-12-14T20:34:09.032Z,11.43
2022-12-14T20:39:10.519Z,10.73
2022-12-14T20:44:12.628Z,11.32
2022-12-14T20:49:15.725Z,12.48
2022-12-14T20:54:18.084Z,12.00
2022-12-14T20:59:19.669Z,10.48
2022-12-14T21:04:21.266Z,14.90
2022-12-14T21:09:23.066Z,14.57
2022-12-14T21:14:25.764Z,13.77
2022-12-14T21:19:27.414Z,12.75
2022-12-14T21:25:02.580Z,12.45
2022-12-14T21:29:53.455Z,11.02
2022-12-14T21:34:54.837Z,10.93
2022-12-14T21:39:56.258Z,11.55
2022-12-14T21:44:57.803Z,11.57
2022-12-14T21:49:59.218Z,12.30
2022-12-14T21:55:02.121Z,11.88
2022-12-14T22:00:06.997Z,11.40
2022-12-14T22:05:08.708Z,13.30
2022-12-14T22:10:10.093Z,10.70
2022-12-14T22:15:11.513Z,9.48
2022-12-14T22:20:13.126Z,8.85
2022-12-14T22:25:15.472Z,10.40
2022-12-14T22:30:16.883Z,10.52
2022-12-14T22:35:18.409Z,13.32
2022-12-14T22:40:19.746Z,12.70
2022-12-14T22:45:21.196Z,9.88
2022-12-14T22:50:22.552Z,8.48
2022-12-14T22:55:24.286Z,7.88
2022-12-14T23:00:25.805Z,5.57
2022-12-14T23:05:27.294Z,5.53
2022-12-14T23:10:47.184Z,5.15
2022-12-14T23:16:10.395Z,5.18
2022-12-14T23:21:31.249Z,5.03
2022-12-14T23:26:51.763Z,5.97
2022-12-14T23:32:11.566Z,6.28
2022-12-14T23:37:31.910Z,6.97
2022-12-14T23:42:52.395Z,6.65
2022-12-14T23:48:14.453Z,6.53
2022-12-14T23:53:34.600Z,5.57
2022-12-14T23:58:55.216Z,6.40
